createdAt,value
2023-03-10T08:50:54.590Z,98890.59
2023-03-10T08:53:22.504Z,98890.19
2023-03-10T08:55:50.504Z,98889.13
2023-03-10T08:58:18.516Z,98890.81
2023-03-10T09:00:46.471Z,98882.06
2023-03-10T09:03:15.540Z,98879.28
2023-03-10T09:05:43.629Z,98874.91
2023-03-10T09:08:13.001Z,98870.59
2023-03-10T09:10:41.447Z,98866.78
2023-03-10T09:13:14.067Z,98863.00
2023-03-10T09:15:42.514Z,98858.63
2023-03-10T09:18:10.677Z,98844.41
2023-03-10T09:20:39.059Z,98848.78
2023-03-10T09:23:07.289Z,98832.94
2023-03-10T09:25:36.859Z,98821.41
2023-03-10T09:28:04.921Z,98831.53
2023-03-10T09:30:34.036Z,98840.06
2023-03-10T09:33:02.152Z,98837.25
2023-03-10T09:35:30.298Z,98831.72
2023-03-10T09:37:58.247Z,98826.94
2023-03-10T09:40:26.198Z,98814.56
2023-03-10T09:42:57.439Z,98813.75
2023-03-10T09:45:28.089Z,98808.59
2023-03-10T09:48:32.442Z,98806.16
2023-03-10T09:51:01.363Z,98800.94
2023-03-10T09:53:39.159Z,98791.34
2023-03-10T09:56:12.152Z,98796.53
2023-03-10T09:58:42.887Z,98788.44
2023-03-10T10:01:16.166Z,98782.41
2023-03-10T10:03:57.906Z,98781.69
2023-03-10T10:06:28.562Z,98777.63
2023-03-10T10:09:04.737Z,98772.84
2023-03-10T10:11:33.712Z,98771.25
2023-03-10T10:14:38.468Z,98746.75
2023-03-10T10:17:10.954Z,98746.72
2023-03-10T10:19:39.896Z,98746.66
2023-03-10T10:22:10.370Z,98739.72
2023-03-10T10:24:38.663Z,98734.91
2023-03-10T10:27:06.644Z,98733.44
2023-03-10T10:29:37.228Z,98723.63
2023-03-10T10:32:07.089Z,98728.41
2023-03-10T10:34:35.255Z,98713.44
2023-03-10T10:37:03.230Z,98712.03
2023-03-10T10:39:33.111Z,98708.03
2023-03-10T10:42:14.543Z,98704.44
2023-03-10T10:44:44.420Z,98692.06
2023-03-10T10:47:25.503Z,98687.97
2023-03-10T10:49:53.509Z,98679.38
2023-03-10T10:52:23.528Z,98673.72
2023-03-10T10:54:56.328Z,98662.06
2023-03-10T10:57:25.304Z,98656.13
2023-03-10T10:59:54.644Z,98661.09
2023-03-10T11:02:24.543Z,98649.38
2023-03-10T11:04:52.496Z,98634.16
2023-03-10T11:07:21.787Z,98634.59
2023-03-10T11:09:49.760Z,98623.56
2023-03-10T11:12:20.518Z,98608.34
2023-03-10T11:14:57.524Z,98623.28
2023-03-10T11:17:29.239Z,98619.06
2023-03-10T11:20:00.967Z,98605.56
2023-03-10T11:22:34.833Z,98596.91
2023-03-10T11:25:03.583Z,98594.97
2023-03-10T11:27:39.798Z,98599.94
2023-03-10T11:30:12.936Z,98586.47
2023-03-10T11:32:46.303Z,98541.94
2023-03-10T11:35:19.920Z,98570.66
2023-03-10T11:37:49.345Z,98560.13
2023-03-10T11:40:19.986Z,98552.81
2023-03-10T11:42:51.309Z,98540.72
2023-03-10T11:45:28.318Z,98545.59
2023-03-10T11:48:01.788Z,98534.34
2023-03-10T11:50:40.333Z,98528.84
2023-03-10T11:53:13.768Z,98527.09
2023-03-10T11:55:41.726Z,98529.72
2023-03-10T11:58:16.086Z,98521.13
2023-03-10T12:00:45.475Z,98522.63
2023-03-10T12:03:16.308Z,98519.06
2023-03-10T12:05:46.671Z,98504.91
2023-03-10T12:08:14.741Z,98507.00
2023-03-10T12:10:42.652Z,98508.72
2023-03-10T12:13:19.301Z,98515.19
2023-03-10T12:15:48.723Z,98514.97
2023-03-10T12:18:16.751Z,98514.22
2023-03-10T12:20:44.740Z,98502.63
2023-03-10T12:23:31.681Z,98516.59
2023-03-10T12:25:59.658Z,98518.34
2023-03-10T12:28:28.217Z,98508.44
2023-03-10T12:30:58.519Z,98499.34
2023-03-10T12:33:45.824Z,98502.53
2023-03-10T12:36:15.896Z,98486.47
2023-03-10T12:38:48.153Z,98487.53
2023-03-10T12:41:16.343Z,98476.13
2023-03-10T12:44:07.498Z,98475.22
2023-03-10T12:46:44.881Z,98480.56
2023-03-10T12:49:18.865Z,98471.88
2023-03-10T12:51:49.084Z,98478.63
2023-03-10T12:54:44.161Z,98477.63
2023-03-10T12:57:16.909Z,98468.94
2023-03-10T12:59:46.969Z,98473.44
2023-03-10T13:02:31.543Z,98470.03
2023-03-10T13:05:05.262Z,98478.53
2023-03-10T13:07:33.247Z,98467.88
2023-03-10T13:10:02.751Z,98468.72
2023-03-10T13:12:32.490Z,98462.53
2023-03-10T13:15:01.378Z,98453.53
2023-03-10T13:17:31.490Z,98460.09
2023-03-10T13:20:01.472Z,98448.97
2023-03-10T13:22:29.531Z,98447.06
2023-03-10T13:25:02.245Z,98440.44
2023-03-10T13:27:31.846Z,98426.84
2023-03-10T13:30:04.261Z,98427.97
2023-03-10T13:32:33.954Z,98425.84
2023-03-10T13:35:13.913Z,98419.88
2023-03-10T13:37:41.848Z,98407.28
2023-03-10T13:40:11.142Z,98409.19
2023-03-10T13:42:44.122Z,98377.53
2023-03-10T13:45:21.911Z,98405.66
2023-03-10T13:47:51.507Z,98406.78
2023-03-10T13:50:19.762Z,98407.34
2023-03-10T13:52:54.229Z,98395.34
2023-03-10T13:55:22.312Z,98389.31
2023-03-10T13:57:50.398Z,98389.34
2023-03-10T14:00:19.643Z,98388.81
2023-03-10T14:02:48.135Z,98390.44
2023-03-10T14:05:39.766Z,98388.81
2023-03-10T14:08:07.788Z,98380.34
2023-03-10T14:10:35.784Z,98379.28
2023-03-10T14:13:03.731Z,98380.06
2023-03-10T14:15:38.213Z,98379.00
2023-03-10T14:18:18.765Z,98363.97
2023-03-10T14:20:48.353Z,98366.41
2023-03-10T14:23:29.400Z,98372.41
2023-03-10T14:25:57.691Z,98369.16
2023-03-10T14:28:26.933Z,98362.06
2023-03-10T14:30:55.017Z,98357.13
2023-03-10T14:33:23.342Z,98350.06
2023-03-10T14:35:52.922Z,98354.69
2023-03-10T14:38:21.009Z,98344.59
2023-03-10T14:40:50.029Z,98342.13
2023-03-10T14:43:19.639Z,98330.41
2023-03-10T14:45:48.302Z,98324.44
2023-03-10T14:48:18.169Z,98319.78
2023-03-10T14:50:46.429Z,98310.81
2023-03-10T14:53:16.471Z,98315.16
2023-03-10T14:55:45.200Z,98314.88
2023-03-10T14:58:14.139Z,98317.31
2023-03-10T15:00:42.073Z,98312.66
2023-03-10T15:03:11.024Z,98309.69
2023-03-10T15:05:48.316Z,98306.44
2023-03-10T15:08:18.860Z,98304.22
2023-03-10T15:10:48.331Z,98307.75
2023-03-10T15:13:16.585Z,98291.94
2023-03-10T15:15:45.710Z,98299.81
2023-03-10T15:18:14.825Z,98296.03
2023-03-10T15:20:42.819Z,98279.69
2023-03-10T15:23:12.492Z,98286.72
2023-03-10T15:25:45.819Z,98291.59
2023-03-10T15:28:14.149Z,98290.50
2023-03-10T15:30:42.178Z,98289.66
2023-03-10T15:33:10.793Z,98280.13
2023-03-10T15:35:39.917Z,98269.47
2023-03-10T15:38:07.990Z,98274.91
2023-03-10T15:40:36.193Z,98274.63
2023-03-10T15:43:05.634Z,98270.78
2023-03-10T15:45:33.725Z,98289.28
2023-03-10T15:48:01.753Z,98289.28
2023-03-10T15:50:29.740Z,98279.97
2023-03-10T15:52:58.967Z,98267.47
2023-03-10T15:55:27.110Z,98265.00
2023-03-10T15:57:56.113Z,98271.78
2023-03-10T16:00:26.360Z,98263.09
2023-03-10T16:02:54.398Z,98253.25
2023-03-10T16:05:22.758Z,98255.97
2023-03-10T16:07:50.778Z,98261.94
2023-03-10T16:10:19.676Z,98259.25
2023-03-10T16:12:47.731Z,98258.69
2023-03-10T16:15:18.074Z,98256.47
2023-03-10T16:17:47.764Z,98256.47
2023-03-10T16:20:19.054Z,98254.28
2023-03-10T16:22:47.129Z,98250.69
2023-03-10T16:25:15.464Z,98247.63
2023-03-10T16:27:43.655Z,98234.53
2023-03-10T16:30:12.713Z,98252.53
2023-03-10T16:32:40.865Z,98248.44
2023-03-10T16:35:10.936Z,98236.75
2023-03-10T16:37:38.879Z,98239.44
2023-03-10T16:40:08.180Z,98235.59
2023-03-10T16:42:36.852Z,98227.47
2023-03-10T16:45:05.277Z,98232.63
2023-03-10T16:47:33.412Z,98232.91
2023-03-10T16:50:01.493Z,98240.50
2023-03-10T16:52:30.869Z,98235.59
2023-03-10T16:54:58.911Z,98229.56
2023-03-10T16:57:26.979Z,98231.16
2023-03-10T16:59:54.955Z,98239.31
2023-03-10T17:02:22.908Z,98232.56
2023-03-10T17:04:50.896Z,98236.03
2023-03-10T17:07:19.452Z,98242.28
2023-03-10T17:09:49.505Z,98247.97
2023-03-10T17:12:17.679Z,98240.88
2023-03-10T17:14:45.631Z,98251.44
2023-03-10T17:17:14.100Z,98247.88
2023-03-10T17:19:42.081Z,98248.94
2023-03-10T17:22:10.068Z,98244.25
2023-03-10T17:24:38.084Z,98251.00
2023-03-10T17:27:07.771Z,98245.09
2023-03-10T17:29:35.723Z,98244.19
2023-03-10T17:32:03.776Z,98248.78
2023-03-10T17:34:31.851Z,98248.75
2023-03-10T17:36:59.810Z,98250.16
2023-03-10T17:39:28.977Z,98251.41
2023-03-10T17:41:56.939Z,98250.31
2023-03-10T17:44:26.314Z,98247.63
2023-03-10T17:46:56.047Z,98237.59
2023-03-10T17:49:24.071Z,98242.75
2023-03-10T17:51:52.106Z,98250.31
2023-03-10T17:54:21.183Z,98248.16
2023-03-10T17:56:49.349Z,98256.25
2023-03-10T17:59:17.333Z,98252.78
2023-03-10T18:01:46.750Z,98258.91
2023-03-10T18:04:14.790Z,98251.84
2023-03-10T18:06:42.832Z,98242.63
2023-03-10T18:09:13.344Z,98232.88
2023-03-10T18:11:41.349Z,98236.06
2023-03-10T18:14:09.398Z,98244.78
2023-03-10T18:16:38.981Z,98258.34
2023-03-10T18:19:10.497Z,98253.34
2023-03-10T18:21:38.958Z,98263.66
2023-03-10T18:24:08.421Z,98273.88
2023-03-10T18:26:36.736Z,98272.19
2023-03-10T18:29:04.862Z,98275.97
2023-03-10T18:31:33.691Z,98281.38
2023-03-10T18:34:01.696Z,98277.06
2023-03-10T18:36:32.105Z,98283.56
2023-03-10T18:39:00.143Z,98273.00
2023-03-10T18:41:29.451Z,98268.91
2023-03-10T18:43:57.506Z,98249.38
2023-03-10T18:46:28.199Z,98242.53
2023-03-10T18:48:56.515Z,98235.78
2023-03-10T18:51:25.022Z,98228.22
2023-03-10T18:53:54.461Z,98219.75
2023-03-10T18:56:23.829Z,98215.34
2023-03-10T18:58:51.775Z,98197.84
2023-03-10T19:01:19.783Z,98189.59
2023-03-10T19:03:47.771Z,98178.94
2023-03-10T19:06:15.788Z,98171.41
2023-03-10T19:08:44.083Z,98171.91
2023-03-10T19:11:13.457Z,98160.69
2023-03-10T19:13:44.202Z,98153.63
2023-03-10T19:16:12.530Z,98158.47
2023-03-10T19:18:40.698Z,98147.97
2023-03-10T19:21:09.541Z,98153.22
2023-03-10T19:23:37.664Z,98148.81
2023-03-10T19:26:05.926Z,98154.81
2023-03-10T19:28:35.267Z,98156.47
2023-03-10T19:31:03.253Z,98148.25
2023-03-10T19:33:31.222Z,98144.03
2023-03-10T19:36:02.397Z,98150.03
2023-03-10T19:38:30.454Z,98143.53
2023-03-10T19:40:58.541Z,98129.97
2023-03-10T19:43:26.607Z,98138.09
2023-03-10T19:46:01.828Z,98129.97
2023-03-10T19:48:29.839Z,98122.19
2023-03-10T19:50:58.208Z,98115.50
2023-03-10T19:53:26.991Z,98120.53
2023-03-10T19:55:55.010Z,98117.69
2023-03-10T19:58:22.970Z,98111.56
2023-03-10T20:00:52.210Z,98105.00
2023-03-10T20:03:21.712Z,98109.28
2023-03-10T20:05:49.650Z,98101.41
2023-03-10T20:08:17.564Z,98108.47
2023-03-10T20:10:46.083Z,98094.53
2023-03-10T20:13:14.059Z,98087.50
2023-03-10T20:15:42.015Z,98092.09
2023-03-10T20:18:10.086Z,98090.25
2023-03-10T20:20:39.465Z,98087.66
2023-03-10T20:23:08.628Z,98081.13
2023-03-10T20:25:36.609Z,98082.75
2023-03-10T20:28:04.565Z,98087.66
2023-03-10T20:30:32.637Z,98087.25
2023-03-10T20:33:01.106Z,98089.13
2023-03-10T20:35:30.112Z,98097.34
2023-03-10T20:37:59.536Z,98087.00
2023-03-10T20:40:27.581Z,98085.88
2023-03-10T20:42:56.635Z,98070.56
2023-03-10T20:45:24.611Z,98066.28
2023-03-10T20:47:53.301Z,98056.53
2023-03-10T20:50:21.858Z,98036.91
2023-03-10T20:52:49.826Z,98033.75
2023-03-10T20:55:20.623Z,98033.25
2023-03-10T20:57:48.825Z,98043.56
2023-03-10T21:00:17.905Z,98045.94
2023-03-10T21:02:46.037Z,98044.28
2023-03-10T21:05:14.184Z,98032.84
2023-03-10T21:07:42.169Z,98032.66
2023-03-10T21:10:11.600Z,98036.47
2023-03-10T21:12:40.920Z,98019.38
2023-03-10T21:15:10.264Z,98018.78
2023-03-10T21:17:38.206Z,98016.03
2023-03-10T21:20:08.030Z,98011.19
2023-03-10T21:22:36.047Z,98012.38
2023-03-10T21:25:06.030Z,98004.28
2023-03-10T21:27:35.231Z,97996.28
2023-03-10T21:30:04.920Z,97996.38
2023-03-10T21:32:33.132Z,98002.19
2023-03-10T21:35:01.140Z,98006.38
2023-03-10T21:37:29.125Z,98003.16
2023-03-10T21:39:58.021Z,97995.16
2023-03-10T21:42:25.992Z,97989.84
2023-03-10T21:44:55.271Z,97986.34
2023-03-10T21:47:24.605Z,97980.31
2023-03-10T21:49:52.560Z,97965.34
2023-03-10T21:52:20.610Z,97953.06
2023-03-10T21:54:48.586Z,97960.56
2023-03-10T21:57:16.569Z,97959.81
2023-03-10T21:59:44.572Z,97952.00
2023-03-10T22:02:17.264Z,97952.56
2023-03-10T22:04:46.634Z,97952.44
2023-03-10T22:07:14.644Z,97952.56
2023-03-10T22:09:43.055Z,97933.69
2023-03-10T22:12:11.058Z,97940.66
2023-03-10T22:14:39.018Z,97941.22
2023-03-10T22:17:07.021Z,97933.16
2023-03-10T22:19:34.996Z,97939.28
2023-03-10T22:22:05.270Z,97933.25
2023-03-10T22:24:33.318Z,97942.44
2023-03-10T22:27:01.288Z,97947.38
2023-03-10T22:29:29.216Z,97940.63
2023-03-10T22:31:57.938Z,97931.72
2023-03-10T22:34:25.927Z,97941.56
2023-03-10T22:36:53.880Z,97931.72
2023-03-10T22:39:23.884Z,97940.72
2023-03-10T22:41:51.871Z,97934.22
2023-03-10T22:44:19.870Z,97929.94
2023-03-10T22:46:48.160Z,97932.53
2023-03-10T22:49:16.106Z,97923.84
2023-03-10T22:51:44.103Z,97936.31
2023-03-10T22:54:12.137Z,97934.38
2023-03-10T22:56:41.482Z,97928.03
2023-03-10T22:59:09.507Z,97925.25
2023-03-10T23:01:37.576Z,97926.63
2023-03-10T23:04:06.376Z,97925.69
2023-03-10T23:06:35.715Z,97923.59
2023-03-10T23:09:04.243Z,97927.44
2023-03-10T23:11:32.198Z,97917.72
2023-03-10T23:14:03.780Z,97914.44
2023-03-10T23:16:34.356Z,97909.66
2023-03-10T23:19:02.365Z,97909.38
2023-03-10T23:21:30.402Z,97908.31
2023-03-10T23:23:58.420Z,97903.38
2023-03-10T23:26:27.224Z,97900.16
2023-03-10T23:28:55.175Z,97896.94
2023-03-10T23:31:24.607Z,97886.88
2023-03-10T23:33:52.717Z,97890.97
2023-03-10T23:36:20.666Z,97876.13
2023-03-10T23:38:48.628Z,97876.63
2023-03-10T23:41:16.769Z,97859.06
2023-03-10T23:43:44.722Z,97861.38
2023-03-10T23:46:12.771Z,97866.78
2023-03-10T23:48:42.149Z,97867.63
2023-03-10T23:51:14.757Z,97870.69
2023-03-10T23:53:43.256Z,97865.81
2023-03-10T23:56:11.420Z,97872.09
2023-03-10T23:58:40.248Z,97862.94
